createdAt,value
2019-04-20T00:01:16.731Z,5.93
2019-04-20T00:03:45.652Z,5.80
2019-04-20T00:06:19.387Z,5.77
2019-04-20T00:08:58.863Z,5.73
2019-04-20T00:11:31.282Z,5.60
2019-04-20T00:14:05.618Z,5.53
2019-04-20T00:16:33.766Z,5.83
2019-04-20T00:19:07.169Z,5.60
2019-04-20T00:21:57.730Z,6.00
2019-04-20T00:24:34.063Z,5.97
2019-04-20T00:27:30.270Z,5.40
2019-04-20T00:29:54.880Z,5.80
2019-04-20T00:32:20.996Z,5.30
2019-04-20T00:34:47.091Z,5.90
2019-04-20T00:37:19.288Z,5.33
2019-04-20T00:39:51.033Z,5.50
2019-04-20T00:42:32.503Z,5.30
2019-04-20T00:45:05.627Z,6.00
2019-04-20T00:47:37.140Z,5.73
2019-04-20T00:50:19.633Z,5.80
2019-04-20T00:52:54.377Z,5.20
2019-04-20T00:55:10.506Z,4.87
2019-04-20T00:57:51.406Z,6.03
2019-04-20T01:00:32.833Z,5.30
2019-04-20T01:03:07.942Z,5.87
2019-04-20T01:05:53.005Z,6.00
2019-04-20T01:08:17.139Z,5.40
2019-04-20T01:10:52.534Z,5.73
2019-04-20T01:13:24.448Z,5.80
2019-04-20T01:16:03.299Z,5.77
2019-04-20T01:18:28.682Z,5.57
2019-04-20T01:21:09.533Z,5.80
2019-04-20T01:23:40.416Z,5.40
2019-04-20T01:26:11.465Z,5.43
2019-04-20T01:28:54.135Z,5.50
2019-04-20T01:31:25.430Z,5.57
2019-04-20T01:33:56.555Z,5.57
2019-04-20T01:36:43.031Z,5.00
2019-04-20T01:39:07.468Z,4.50
2019-04-20T01:41:28.593Z,5.20
2019-04-20T01:44:02.616Z,5.90
2019-04-20T01:46:38.340Z,5.70
2019-04-20T01:49:13.598Z,5.67
2019-04-20T01:51:53.616Z,5.40
2019-04-20T01:54:31.126Z,5.70
2019-04-20T01:57:06.263Z,6.10
2019-04-20T01:59:56.342Z,5.40
2019-04-20T02:02:49.736Z,5.70
2019-04-20T02:05:25.102Z,5.87
2019-04-20T02:07:53.184Z,5.60
2019-04-20T02:10:33.247Z,6.13
2019-04-20T02:13:01.054Z,5.33
2019-04-20T02:15:37.917Z,6.20
2019-04-20T02:18:19.117Z,6.33
2019-04-20T02:20:54.526Z,6.40
2019-04-20T02:23:21.450Z,5.90
2019-04-20T02:25:43.989Z,6.17
2019-04-20T02:28:34.035Z,6.40
2019-04-20T02:31:23.101Z,6.33
2019-04-20T02:34:11.422Z,5.80
2019-04-20T02:37:05.403Z,5.90
2019-04-20T02:44:52.641Z,6.73
2019-04-20T02:47:16.427Z,6.27
2019-04-20T02:50:00.243Z,6.70
2019-04-20T02:52:21.075Z,5.90
2019-04-20T02:54:55.034Z,6.10
2019-04-20T02:57:32.682Z,6.73
2019-04-20T03:02:18.235Z,6.30
2019-04-20T03:04:42.504Z,6.10
2019-04-20T03:07:23.282Z,5.77
2019-04-20T03:10:03.939Z,6.37
2019-04-20T03:12:38.382Z,6.50
2019-04-20T03:15:03.060Z,6.63
2019-04-20T03:17:46.250Z,6.30
2019-04-20T03:20:10.662Z,5.97
2019-04-20T03:23:14.288Z,6.60
2019-04-20T03:25:45.069Z,6.67
2019-04-20T03:28:15.549Z,6.70
2019-04-20T03:36:12.211Z,6.27
2019-04-20T03:38:33.297Z,6.80
2019-04-20T03:40:59.114Z,6.30
2019-04-20T03:43:20.214Z,6.57
2019-04-20T03:45:59.536Z,6.90
2019-04-20T03:48:41.163Z,6.70
2019-04-20T03:51:26.812Z,7.07
2019-04-20T03:54:02.758Z,6.53
2019-04-20T03:56:49.222Z,6.97
2019-04-20T03:59:44.299Z,6.93
2019-04-20T04:02:45.872Z,6.97
2019-04-20T04:05:17.649Z,6.60
2019-04-20T04:07:40.398Z,7.17
2019-04-20T04:10:20.656Z,7.67
2019-04-20T04:13:14.776Z,7.83
2019-04-20T04:15:52.265Z,6.80
2019-04-20T04:18:29.797Z,7.13
2019-04-20T04:21:03.050Z,7.53
2019-04-20T04:23:44.495Z,7.07
2019-04-20T04:26:22.488Z,7.67
2019-04-20T04:28:49.002Z,7.10
2019-04-20T04:31:27.839Z,7.50
2019-04-20T04:34:12.413Z,7.30
2019-04-20T04:36:30.265Z,7.57
2019-04-20T04:39:11.455Z,7.27
2019-04-20T04:41:39.732Z,7.93
2019-04-20T04:44:11.224Z,7.67
2019-04-20T04:46:29.287Z,7.80
2019-04-20T04:49:11.791Z,7.57
2019-04-20T04:51:44.631Z,7.17
2019-04-20T04:54:16.408Z,7.20
2019-04-20T04:56:41.724Z,7.60
2019-04-20T04:59:14.838Z,7.27
2019-04-20T05:01:51.454Z,7.80
2019-04-20T05:04:55.175Z,6.93
2019-04-20T05:07:09.315Z,7.20
2019-04-20T05:09:29.601Z,7.43
2019-04-20T05:12:07.144Z,7.60
2019-04-20T05:14:47.105Z,7.30
2019-04-20T05:17:28.121Z,7.37
2019-04-20T05:20:02.514Z,7.40
2019-04-20T05:22:38.872Z,7.70
2019-04-20T05:25:27.354Z,7.23
2019-04-20T05:28:01.379Z,7.20
2019-04-20T05:30:16.252Z,7.20
2019-04-20T05:32:54.795Z,7.30
2019-04-20T05:35:43.716Z,7.30
2019-04-20T05:38:28.100Z,8.13
2019-04-20T05:40:50.492Z,7.37
2019-04-20T05:43:33.521Z,8.13
2019-04-20T05:46:05.985Z,7.83
2019-04-20T05:48:45.705Z,8.17
2019-04-20T05:51:20.749Z,8.50
2019-04-20T05:53:48.814Z,7.67
2019-04-20T05:56:29.162Z,7.97
2019-04-20T05:58:56.965Z,8.50
2019-04-20T06:01:36.281Z,8.40
2019-04-20T06:04:00.086Z,8.60
2019-04-20T06:06:37.595Z,8.37
2019-04-20T06:09:12.263Z,8.30
2019-04-20T06:12:01.136Z,8.60
2019-04-20T06:14:37.088Z,8.50
2019-04-20T06:17:22.931Z,8.50
2019-04-20T06:19:51.943Z,8.83
2019-04-20T06:22:34.959Z,8.40
2019-04-20T06:25:23.622Z,8.90
2019-04-20T06:27:46.064Z,7.30
2019-04-20T06:30:10.928Z,7.93
2019-04-20T06:34:01.321Z,8.30
2019-04-20T06:39:13.362Z,7.60
2019-04-20T06:41:34.992Z,7.70
2019-04-20T06:44:08.393Z,7.90
2019-04-20T06:46:37.446Z,8.07
2019-04-20T06:49:18.353Z,7.50
2019-04-20T06:51:49.081Z,7.43
2019-04-20T06:54:32.416Z,7.80
2019-04-20T06:57:12.998Z,8.53
2019-04-20T06:59:43.210Z,8.03
2019-04-20T07:02:21.864Z,8.33
2019-04-20T07:05:08.565Z,8.37
2019-04-20T07:07:36.297Z,8.13
2019-04-20T07:10:02.623Z,8.00
2019-04-20T07:12:31.203Z,8.03
2019-04-20T07:14:50.864Z,8.27
2019-04-20T07:17:58.975Z,8.13
2019-04-20T07:20:51.644Z,7.97
2019-04-20T07:23:26.912Z,8.40
2019-04-20T07:25:59.520Z,8.23
2019-04-20T07:28:27.094Z,8.70
2019-04-20T07:30:55.371Z,8.50
2019-04-20T07:33:32.248Z,8.43
2019-04-20T07:36:06.094Z,7.93
2019-04-20T07:38:42.605Z,8.17
2019-04-20T07:41:08.286Z,8.30
2019-04-20T07:43:57.373Z,8.70
2019-04-20T07:46:35.219Z,8.10
2019-04-20T07:48:54.381Z,8.37
2019-04-20T07:51:13.468Z,8.40
2019-04-20T07:54:08.884Z,8.50
2019-04-20T07:56:37.547Z,8.30
2019-04-20T07:58:52.738Z,8.00
2019-04-20T08:02:06.017Z,8.07
2019-04-20T08:04:28.572Z,8.63
2019-04-20T08:06:49.867Z,8.50
2019-04-20T08:09:28.088Z,8.10
2019-04-20T08:12:26.848Z,8.27
2019-04-20T08:14:56.852Z,8.37
2019-04-20T08:17:31.222Z,9.57
2019-04-20T08:20:00.124Z,7.73
2019-04-20T08:22:35.482Z,7.37
2019-04-20T08:25:01.359Z,9.37
2019-04-20T08:27:23.463Z,7.70
2019-04-20T08:30:22.831Z,9.50
2019-04-20T08:33:06.873Z,7.93
2019-04-20T08:35:51.248Z,8.33
2019-04-20T08:40:47.881Z,7.77
2019-04-20T08:43:39.580Z,8.77
2019-04-20T08:45:59.605Z,8.10
2019-04-20T08:48:34.819Z,8.17
2019-04-20T08:51:03.594Z,8.27
2019-04-20T08:53:37.025Z,8.50
2019-04-20T08:56:05.494Z,7.70
2019-04-20T08:58:24.864Z,8.13
2019-04-20T09:01:00.830Z,7.27
2019-04-20T09:03:40.883Z,7.80
2019-04-20T09:06:14.568Z,7.83
2019-04-20T09:08:46.649Z,7.30
2019-04-20T09:11:25.038Z,7.00
2019-04-20T09:13:48.434Z,6.90
2019-04-20T09:16:19.962Z,7.27
2019-04-20T09:18:57.906Z,6.37
2019-04-20T09:21:38.017Z,6.40
2019-04-20T09:24:26.915Z,6.50
2019-04-20T09:26:48.975Z,7.07
2019-04-20T09:29:23.608Z,6.10
2019-04-20T09:32:00.261Z,6.03
2019-04-20T09:34:45.268Z,6.40
2019-04-20T09:37:41.675Z,6.57
2019-04-20T09:40:33.054Z,6.07
2019-04-20T09:42:53.717Z,6.50
2019-04-20T09:45:37.094Z,6.70
2019-04-20T09:48:13.257Z,6.60
2019-04-20T09:50:55.522Z,5.80
2019-04-20T09:53:24.788Z,6.20
2019-04-20T09:56:01.908Z,6.10
2019-04-20T09:58:28.069Z,6.17
2019-04-20T10:01:01.814Z,6.03
2019-04-20T10:03:24.871Z,5.80
2019-04-20T10:05:57.049Z,6.43
2019-04-20T10:08:29.364Z,6.07
2019-04-20T10:11:01.489Z,5.43
2019-04-20T10:13:34.385Z,6.30
2019-04-20T10:16:06.172Z,8.23
2019-04-20T10:18:44.177Z,5.20
2019-04-20T10:21:13.771Z,5.67
2019-04-20T10:23:45.458Z,6.07
2019-04-20T10:26:18.562Z,6.00
2019-04-20T10:28:51.814Z,6.50
2019-04-20T10:31:24.521Z,5.80
2019-04-20T10:33:57.534Z,5.37
2019-04-20T10:37:01.680Z,5.63
2019-04-20T10:39:36.311Z,6.60
2019-04-20T10:42:08.414Z,6.20
2019-04-20T10:44:40.952Z,6.10
2019-04-20T10:47:12.730Z,5.93
2019-04-20T10:49:45.045Z,6.13
2019-04-20T10:52:17.866Z,6.72
2019-04-20T10:54:50.342Z,5.40
2019-04-20T10:57:22.048Z,6.07
2019-04-20T10:59:53.624Z,6.77
2019-04-20T11:02:25.869Z,5.53
2019-04-20T11:04:58.836Z,5.93
2019-04-20T11:07:30.614Z,5.70
2019-04-20T11:10:14.276Z,5.30
2019-04-20T11:12:38.017Z,5.63
2019-04-20T11:15:10.570Z,5.70
2019-04-20T11:17:43.456Z,5.90
2019-04-20T11:20:15.378Z,5.60
2019-04-20T11:22:48.436Z,6.10
2019-04-20T11:25:20.209Z,6.63
2019-04-20T11:27:52.259Z,5.60
2019-04-20T11:30:24.078Z,6.07
2019-04-20T11:32:56.013Z,6.40
2019-04-20T11:35:32.670Z,6.03
2019-04-20T11:38:01.188Z,5.93
2019-04-20T11:40:32.975Z,6.03
2019-04-20T11:43:05.750Z,6.00
2019-04-20T11:45:38.490Z,6.33
2019-04-20T11:48:11.549Z,5.90
2019-04-20T11:50:43.437Z,6.07
2019-04-20T11:53:17.430Z,6.20
2019-04-20T11:55:49.102Z,6.20
2019-04-20T11:58:21.770Z,6.30
2019-04-20T12:01:03.202Z,7.17
2019-04-20T12:03:38.061Z,7.50
2019-04-20T12:06:06.294Z,6.73
2019-04-20T12:08:40.191Z,6.70
2019-04-20T12:11:22.791Z,6.47
2019-04-20T12:13:42.828Z,6.70
2019-04-20T12:16:14.459Z,5.90
2019-04-20T12:18:46.403Z,6.27
2019-04-20T12:21:18.928Z,6.20
2019-04-20T12:23:51.998Z,6.77
2019-04-20T12:26:24.849Z,6.20
2019-04-20T12:28:57.894Z,5.87
2019-04-20T12:31:29.616Z,5.70
2019-04-20T12:34:02.290Z,6.23
2019-04-20T12:36:35.296Z,6.10
2019-04-20T12:39:10.990Z,6.30
2019-04-20T12:41:49.816Z,5.50
2019-04-20T12:44:17.421Z,5.10
2019-04-20T12:46:49.912Z,5.57
2019-04-20T12:49:21.601Z,5.10
2019-04-20T12:51:58.011Z,5.20
2019-04-20T12:54:26.938Z,4.97
2019-04-20T12:56:58.662Z,5.33
2019-04-20T12:59:31.580Z,5.00
2019-04-20T13:02:03.401Z,5.47
2019-04-20T13:04:37.297Z,5.00
2019-04-20T13:07:10.095Z,5.13
2019-04-20T13:09:50.652Z,4.97
2019-04-20T13:12:52.296Z,5.40
2019-04-20T13:15:54.683Z,4.70
2019-04-20T13:18:31.185Z,5.07
2019-04-20T13:21:03.262Z,4.63
2019-04-20T13:23:35.147Z,4.63
2019-04-20T13:26:08.744Z,4.70
2019-04-20T13:28:41.321Z,6.57
2019-04-20T13:31:15.621Z,5.43
2019-04-20T13:33:47.693Z,5.03
2019-04-20T13:36:19.965Z,5.33
2019-04-20T13:38:52.242Z,4.80
2019-04-20T13:41:24.414Z,5.30
2019-04-20T13:43:59.257Z,5.40
2019-04-20T13:46:29.475Z,5.37
2019-04-20T13:49:01.066Z,5.10
2019-04-20T13:51:32.902Z,5.43
2019-04-20T13:54:06.268Z,5.50
2019-04-20T13:56:39.740Z,5.90
2019-04-20T13:59:27.846Z,6.40
2019-04-20T14:02:10.897Z,5.43
2019-04-20T14:04:52.825Z,4.90
2019-04-20T14:07:27.039Z,6.13
2019-04-20T14:09:59.506Z,6.53
2019-04-20T14:12:37.134Z,6.40
2019-04-20T14:15:06.805Z,6.40
2019-04-20T14:17:39.244Z,6.40
2019-04-20T14:20:13.880Z,8.33
2019-04-20T14:22:45.205Z,6.80
2019-04-20T14:25:16.931Z,7.43
2019-04-20T14:27:48.759Z,5.93
2019-04-20T14:30:21.120Z,5.63
2019-04-20T14:32:54.709Z,5.87
2019-04-20T14:35:27.075Z,5.97
2019-04-20T14:37:59.682Z,6.20
2019-04-20T14:40:32.446Z,6.30
2019-04-20T14:43:04.205Z,5.90
2019-04-20T14:45:36.673Z,6.27
2019-04-20T14:48:09.841Z,6.07
2019-04-20T14:50:41.590Z,6.80
2019-04-20T14:53:13.612Z,6.00
2019-04-20T14:55:45.248Z,6.93
2019-04-20T14:58:38.343Z,6.83
2019-04-20T15:01:18.579Z,6.10
2019-04-20T15:03:59.825Z,6.00
2019-04-20T15:06:23.478Z,5.67
2019-04-20T15:08:55.101Z,5.20
2019-04-20T15:11:27.090Z,5.70
2019-04-20T15:13:58.806Z,7.23
2019-04-20T15:16:30.776Z,6.90
2019-04-20T15:19:23.667Z,5.70
2019-04-20T15:21:57.710Z,7.07
2019-04-20T15:24:29.466Z,6.10
2019-04-20T15:27:02.444Z,5.60
2019-04-20T15:29:34.159Z,6.37
2019-04-20T15:32:06.090Z,5.93
2019-04-20T15:34:39.107Z,5.63
2019-04-20T15:37:11.968Z,5.53
2019-04-20T15:39:43.727Z,6.03
2019-04-20T15:42:15.396Z,6.20
2019-04-20T15:44:49.280Z,5.47
2019-04-20T15:47:22.278Z,5.40
2019-04-20T15:49:54.047Z,6.00
2019-04-20T15:52:33.574Z,5.30
2019-04-20T15:55:03.099Z,6.03
2019-04-20T15:57:34.504Z,7.23
2019-04-20T16:00:08.724Z,5.20
2019-04-20T16:02:51.441Z,5.60
2019-04-20T16:05:37.666Z,5.83
2019-04-20T16:08:46.387Z,5.50
2019-04-20T16:11:19.332Z,7.53
2019-04-20T16:13:53.843Z,5.90
2019-04-20T16:16:25.684Z,5.53
2019-04-20T16:18:58.834Z,10.20
2019-04-20T16:21:33.900Z,5.40
2019-04-20T16:24:10.945Z,6.30
2019-04-20T16:26:53.685Z,7.17
2019-04-20T16:29:25.873Z,8.57
2019-04-20T16:31:58.343Z,6.40
2019-04-20T16:34:29.964Z,7.03
2019-04-20T16:37:02.173Z,6.93
2019-04-20T16:39:34.371Z,9.00
2019-04-20T16:42:08.609Z,5.30
2019-04-20T16:44:41.248Z,6.00
2019-04-20T16:47:14.231Z,5.50
2019-04-20T16:49:46.724Z,5.20
2019-04-20T16:52:19.120Z,5.40
2019-04-20T16:54:50.814Z,6.00
2019-04-20T16:57:23.697Z,5.50
2019-04-20T16:59:57.772Z,5.70
2019-04-20T17:02:29.850Z,5.87
2019-04-20T17:05:02.968Z,5.00
2019-04-20T17:07:39.314Z,5.57
2019-04-20T17:10:12.310Z,5.83
2019-04-20T17:12:45.905Z,5.77
2019-04-20T17:15:21.322Z,5.40
2019-04-20T17:17:55.217Z,6.40
2019-04-20T17:20:27.289Z,9.03
2019-04-20T17:23:00.358Z,6.50
2019-04-20T17:25:34.027Z,6.20
2019-04-20T17:28:24.936Z,5.60
2019-04-20T17:31:03.071Z,5.47
2019-04-20T17:33:54.147Z,5.50
2019-04-20T17:36:19.737Z,6.07
2019-04-20T17:38:54.163Z,5.63
2019-04-20T17:41:44.534Z,5.77
2019-04-20T17:44:14.221Z,7.40
2019-04-20T17:46:43.868Z,5.40
2019-04-20T17:49:18.309Z,5.07
2019-04-20T17:51:58.090Z,5.80
2019-04-20T17:54:27.203Z,4.70
2019-04-20T17:57:00.277Z,5.53
2019-04-20T17:59:32.388Z,5.40
2019-04-20T18:02:54.141Z,5.40
2019-04-20T18:05:37.118Z,5.27
2019-04-20T18:08:10.616Z,6.10
2019-04-20T18:10:36.480Z,5.10
2019-04-20T18:12:56.529Z,4.73
2019-04-20T18:15:42.335Z,5.50
2019-04-20T18:18:42.129Z,5.60
2019-04-20T18:21:16.903Z,5.67
2019-04-20T18:24:14.446Z,5.47
2019-04-20T18:26:59.346Z,5.90
2019-04-20T18:29:36.781Z,5.40
2019-04-20T18:32:09.859Z,5.63
2019-04-20T18:34:54.127Z,5.80
2019-04-20T18:37:23.915Z,5.60
2019-04-20T18:39:59.669Z,4.93
2019-04-20T18:42:36.730Z,5.20
2019-04-20T18:45:21.651Z,5.37
2019-04-20T18:47:59.238Z,5.20
2019-04-20T18:50:17.321Z,5.00
2019-04-20T18:52:42.377Z,5.90
2019-04-20T18:55:22.229Z,5.10
2019-04-20T18:57:48.950Z,5.10
2019-04-20T19:00:28.765Z,4.80
2019-04-20T19:03:01.376Z,5.20
2019-04-20T19:05:29.668Z,5.50
2019-04-20T19:08:05.291Z,5.33
2019-04-20T19:10:38.068Z,4.67
2019-04-20T19:13:22.968Z,5.83
2019-04-20T19:16:17.584Z,8.90
2019-04-20T19:19:06.650Z,21.67
2019-04-20T19:21:31.104Z,6.30
2019-04-20T19:24:09.232Z,5.83
2019-04-20T19:26:38.486Z,6.97
2019-04-20T19:29:19.965Z,5.50
2019-04-20T19:32:05.921Z,5.37
2019-04-20T19:34:35.411Z,6.00
2019-04-20T19:37:02.411Z,5.90
2019-04-20T19:39:39.850Z,6.20
2019-04-20T19:42:13.136Z,5.90
2019-04-20T19:44:49.515Z,6.37
2019-04-20T19:47:28.463Z,7.10
2019-04-20T19:49:49.728Z,7.03
2019-04-20T19:52:53.081Z,6.90
2019-04-20T19:55:03.339Z,7.70
2019-04-20T19:57:38.901Z,6.70
2019-04-20T19:59:55.523Z,7.40
2019-04-20T20:02:25.906Z,7.40
2019-04-20T20:05:05.362Z,7.43
2019-04-20T20:07:40.140Z,7.20
2019-04-20T20:10:09.136Z,8.17
2019-04-20T20:12:49.424Z,7.50
2019-04-20T20:15:22.288Z,8.20
2019-04-20T20:18:10.215Z,7.00
2019-04-20T20:20:41.480Z,7.10
2019-04-20T20:22:58.151Z,7.30
2019-04-20T20:25:32.852Z,7.10
2019-04-20T20:28:17.085Z,8.13
2019-04-20T20:30:42.817Z,6.63
2019-04-20T20:33:23.823Z,7.30
2019-04-20T20:35:49.279Z,7.13
2019-04-20T20:38:22.422Z,7.40
2019-04-20T20:40:57.902Z,7.20
2019-04-20T20:43:37.611Z,8.90
2019-04-20T20:46:05.254Z,9.60
2019-04-20T20:48:54.348Z,11.13
2019-04-20T20:51:15.197Z,11.13
2019-04-20T20:53:47.319Z,11.37
2019-04-20T20:56:15.509Z,9.50
2019-04-20T20:58:53.887Z,8.53
2019-04-20T21:01:22.210Z,9.13
2019-04-20T21:03:52.566Z,8.40
2019-04-20T21:06:22.443Z,7.20
2019-04-20T21:08:56.705Z,7.57
2019-04-20T21:11:31.444Z,9.97
2019-04-20T21:14:04.394Z,8.20
2019-04-20T21:16:40.470Z,8.27
2019-04-20T21:19:23.474Z,7.03
2019-04-20T21:21:50.503Z,7.00
2019-04-20T21:24:46.731Z,8.30
2019-04-20T21:27:19.800Z,8.50
2019-04-20T21:29:54.266Z,9.10
2019-04-20T21:32:23.722Z,8.60
2019-04-20T21:35:02.661Z,8.37
2019-04-20T21:37:29.026Z,8.70
2019-04-20T21:40:11.627Z,8.10
2019-04-20T21:42:42.476Z,8.43
2019-04-20T21:45:15.867Z,8.30
2019-04-20T21:47:43.064Z,9.70
2019-04-20T21:50:30.013Z,7.67
2019-04-20T21:52:51.838Z,7.80
2019-04-20T21:55:21.778Z,8.53
2019-04-20T21:57:58.460Z,8.57
2019-04-20T22:00:42.486Z,8.83
2019-04-20T22:03:13.681Z,8.20
2019-04-20T22:05:46.546Z,8.00
2019-04-20T22:08:19.703Z,8.57
2019-04-20T22:10:51.491Z,8.30
2019-04-20T22:13:29.298Z,8.60
2019-04-20T22:16:02.003Z,8.20
2019-04-20T22:18:31.794Z,8.30
2019-04-20T22:21:13.278Z,8.10
2019-04-20T22:23:57.123Z,8.10
2019-04-20T22:26:24.433Z,7.90
2019-04-20T22:28:44.579Z,8.80
2019-04-20T22:31:16.365Z,9.60
2019-04-20T22:33:48.921Z,8.80
2019-04-20T22:36:25.942Z,9.00
2019-04-20T22:39:13.962Z,8.70
2019-04-20T22:41:53.559Z,8.10
2019-04-20T22:44:26.597Z,8.40
2019-04-20T22:46:56.784Z,7.43
2019-04-20T22:49:44.231Z,7.17
2019-04-20T22:52:22.290Z,7.67
2019-04-20T22:54:51.806Z,7.03
2019-04-20T22:57:27.879Z,7.37
2019-04-20T22:59:51.905Z,7.80
2019-04-20T23:02:16.316Z,7.93
2019-04-20T23:04:48.785Z,7.23
2019-04-20T23:07:20.908Z,7.47
2019-04-20T23:09:54.958Z,7.53
2019-04-20T23:12:27.554Z,7.50
2019-04-20T23:15:00.199Z,7.43
2019-04-20T23:17:39.820Z,7.47
2019-04-20T23:20:13.174Z,7.63
2019-04-20T23:22:42.508Z,7.90
2019-04-20T23:25:13.366Z,7.97
2019-04-20T23:27:45.776Z,8.50
2019-04-20T23:30:23.578Z,9.93
2019-04-20T23:32:51.760Z,8.10
2019-04-20T23:35:26.580Z,7.67
2019-04-20T23:38:05.518Z,7.63
2019-04-20T23:40:30.119Z,7.37
2019-04-20T23:43:17.747Z,7.30
2019-04-20T23:46:01.118Z,6.90
2019-04-20T23:48:48.086Z,7.03
2019-04-20T23:51:44.204Z,6.37
2019-04-20T23:54:02.010Z,7.53
2019-04-20T23:56:27.856Z,7.10
2019-04-20T23:58:59.881Z,6.60
